createdAt,value
2019-04-26T00:05:15.097Z,24.10
2019-04-26T00:10:41.095Z,24.00
2019-04-26T00:16:19.060Z,23.90
2019-04-26T00:21:35.149Z,23.80
2019-04-26T00:26:51.607Z,23.70
2019-04-26T00:32:07.385Z,23.50
2019-04-26T00:37:23.099Z,23.50
2019-04-26T00:42:39.178Z,23.30
2019-04-26T00:47:55.670Z,23.30
2019-04-26T00:53:13.326Z,23.10
2019-04-26T00:58:33.439Z,23.00
2019-04-26T01:03:47.891Z,23.00
2019-04-26T01:09:04.087Z,22.90
2019-04-26T01:14:22.122Z,22.80
2019-04-26T01:19:40.612Z,22.70
2019-04-26T01:24:58.942Z,22.60
2019-04-26T01:30:14.638Z,22.50
2019-04-26T01:35:30.971Z,22.30
2019-04-26T01:40:49.781Z,22.30
2019-04-26T01:46:12.723Z,22.20
2019-04-26T01:51:51.322Z,22.10
2019-04-26T01:57:07.525Z,22.00
2019-04-26T02:02:39.883Z,21.90
2019-04-26T02:07:57.246Z,21.70
2019-04-26T02:13:12.986Z,21.70
2019-04-26T02:18:29.399Z,21.50
2019-04-26T02:24:04.510Z,21.50
2019-04-26T02:29:27.022Z,21.40
2019-04-26T02:34:43.006Z,21.30
2019-04-26T02:39:59.390Z,21.20
2019-04-26T02:46:01.722Z,21.10
2019-04-26T02:51:25.053Z,21.00
2019-04-26T02:56:45.118Z,20.90
2019-04-26T03:02:05.031Z,20.80
2019-04-26T03:07:46.666Z,20.70
2019-04-26T03:13:06.087Z,20.60
2019-04-26T03:18:51.016Z,20.60
2019-04-26T03:24:42.558Z,20.50
2019-04-26T03:30:33.301Z,20.30
2019-04-26T03:36:17.805Z,20.30
2019-04-26T03:42:31.303Z,20.20
2019-04-26T03:48:07.511Z,20.10
2019-04-26T03:53:49.297Z,20.00
2019-04-26T03:59:27.312Z,19.90
2019-04-26T04:04:55.941Z,19.80
2019-04-26T04:10:19.364Z,19.80
2019-04-26T04:15:46.722Z,19.70
2019-04-26T04:21:30.247Z,19.60
2019-04-26T04:27:26.712Z,19.50
2019-04-26T04:33:05.611Z,19.40
2019-04-26T04:39:11.185Z,19.40
2019-04-26T04:44:42.373Z,19.30
2019-04-26T04:50:45.496Z,19.20
2019-04-26T04:56:55.311Z,19.10
2019-04-26T05:03:02.243Z,19.10
2019-04-26T05:08:36.484Z,19.00
2019-04-26T05:14:10.639Z,18.90
2019-04-26T05:20:15.494Z,18.80
2019-04-26T05:26:45.999Z,18.80
2019-04-26T05:33:09.957Z,18.70
2019-04-26T05:39:20.117Z,18.60
2019-04-26T05:45:46.730Z,18.60
2019-04-26T05:52:05.487Z,18.50
2019-04-26T05:58:10.177Z,18.50
2019-04-26T06:04:39.581Z,18.40
2019-04-26T06:10:32.033Z,18.30
2019-04-26T06:16:02.373Z,18.30
2019-04-26T06:22:11.275Z,18.20
2019-04-26T06:28:16.380Z,18.20
2019-04-26T06:34:05.380Z,18.10
2019-04-26T06:40:15.478Z,18.10
2019-04-26T06:46:14.803Z,18.10
2019-04-26T06:51:39.802Z,18.00
2019-04-26T06:57:59.353Z,18.00
2019-04-26T07:04:12.765Z,17.90
2019-04-26T07:09:35.250Z,17.90
2019-04-26T07:15:31.067Z,17.80
2019-04-26T07:21:30.471Z,17.80
2019-04-26T07:27:41.231Z,17.80
2019-04-26T07:33:53.310Z,17.70
2019-04-26T07:39:54.894Z,17.70
2019-04-26T07:46:04.417Z,17.70
2019-04-26T07:52:49.900Z,17.60
2019-04-26T07:59:08.677Z,17.60
2019-04-26T08:04:36.204Z,17.60
2019-04-26T08:10:17.272Z,17.50
2019-04-26T08:16:14.630Z,17.50
2019-04-26T08:21:37.334Z,17.50
2019-04-26T08:27:23.775Z,17.40
2019-04-26T08:32:51.295Z,17.10
2019-04-26T08:38:16.075Z,16.70
2019-04-26T08:43:55.872Z,16.30
2019-04-26T08:49:26.041Z,15.90
2019-04-26T08:54:51.978Z,15.70
2019-04-26T09:00:23.336Z,15.50
2019-04-26T09:05:59.299Z,15.30
2019-04-26T09:11:25.927Z,15.20
2019-04-26T09:16:35.952Z,15.00
2019-04-26T09:22:12.936Z,14.50
2019-04-26T09:27:46.011Z,14.30
2019-04-26T09:33:08.874Z,14.30
2019-04-26T09:38:24.700Z,14.30
2019-04-26T09:43:48.570Z,14.10
2019-04-26T09:49:41.166Z,14.00
2019-04-26T09:54:55.897Z,13.80
2019-04-26T10:00:16.392Z,13.80
2019-04-26T10:05:36.352Z,13.70
2019-04-26T10:10:53.208Z,13.70
2019-04-26T10:16:37.782Z,13.90
2019-04-26T10:21:54.525Z,14.00
2019-04-26T10:27:10.787Z,14.20
2019-04-26T10:32:27.854Z,14.40
2019-04-26T10:37:47.951Z,14.50
2019-04-26T10:43:01.797Z,14.60
2019-04-26T10:48:17.620Z,14.70
2019-04-26T10:53:53.007Z,14.80
2019-04-26T10:59:28.502Z,14.90
2019-04-26T11:04:46.751Z,15.00
2019-04-26T11:10:03.050Z,15.00
2019-04-26T11:15:20.126Z,15.10
2019-04-26T11:20:36.853Z,15.10
2019-04-26T11:25:52.820Z,15.10
2019-04-26T11:31:08.892Z,15.20
2019-04-26T11:36:24.763Z,15.20
2019-04-26T11:41:41.710Z,15.20
2019-04-26T11:46:59.401Z,15.20
2019-04-26T11:52:16.318Z,15.20
2019-04-26T11:57:32.728Z,15.20
2019-04-26T12:02:50.779Z,15.20
2019-04-26T12:08:09.633Z,15.10
2019-04-26T12:13:26.700Z,15.10
2019-04-26T12:18:44.220Z,15.10
2019-04-26T12:24:01.218Z,15.10
2019-04-26T12:29:17.742Z,15.10
2019-04-26T12:34:33.584Z,15.10
2019-04-26T12:39:50.253Z,15.10
2019-04-26T12:45:24.511Z,15.00
2019-04-26T12:50:41.092Z,15.00
2019-04-26T12:55:58.456Z,15.00
2019-04-26T13:01:15.024Z,15.00
2019-04-26T13:06:32.006Z,15.00
2019-04-26T13:13:11.118Z,15.00
2019-04-26T13:18:31.076Z,15.00
2019-04-26T13:23:50.010Z,15.00
2019-04-26T13:29:12.873Z,15.00
2019-04-26T13:34:33.287Z,15.00
2019-04-26T13:39:55.279Z,15.00
2019-04-26T13:45:36.542Z,15.00
2019-04-26T13:51:01.420Z,15.00
2019-04-26T13:56:15.224Z,14.90
2019-04-26T14:01:32.368Z,14.90
2019-04-26T14:06:48.369Z,14.90
2019-04-26T14:12:17.814Z,14.90
2019-04-26T14:17:26.080Z,14.90
2019-04-26T14:22:51.347Z,14.90
2019-04-26T14:28:08.132Z,14.90
2019-04-26T14:33:27.068Z,14.90
2019-04-26T14:38:47.202Z,14.80
2019-04-26T14:44:14.649Z,14.80
2019-04-26T14:49:23.477Z,14.90
2019-04-26T14:54:41.328Z,14.90
2019-04-26T14:59:58.332Z,14.90
2019-04-26T15:05:33.320Z,15.00
2019-04-26T15:10:57.676Z,15.00
2019-04-26T15:16:10.511Z,15.00
2019-04-26T15:21:27.432Z,15.00
2019-04-26T15:26:45.382Z,15.00
2019-04-26T15:32:04.792Z,15.00
2019-04-26T15:37:25.091Z,15.00
2019-04-26T15:43:02.547Z,15.00
2019-04-26T15:48:36.501Z,15.00
2019-04-26T15:53:53.078Z,15.00
2019-04-26T15:59:08.762Z,15.00
2019-04-26T16:04:25.855Z,15.00
2019-04-26T16:09:44.234Z,15.00
2019-04-26T16:15:06.563Z,15.10
2019-04-26T16:20:23.125Z,15.10
2019-04-26T16:25:40.266Z,15.10
2019-04-26T16:31:15.225Z,15.10
2019-04-26T16:36:36.651Z,15.10
2019-04-26T16:41:49.592Z,15.10
2019-04-26T16:47:05.957Z,15.10
2019-04-26T16:52:23.757Z,15.10
2019-04-26T16:57:43.875Z,15.10
2019-04-26T17:03:02.556Z,15.10
2019-04-26T17:08:19.173Z,15.00
2019-04-26T17:13:34.725Z,15.00
2019-04-26T17:18:50.028Z,15.00
2019-04-26T17:24:46.245Z,15.00
2019-04-26T17:30:03.097Z,15.00
2019-04-26T17:35:20.504Z,14.90
2019-04-26T17:40:38.029Z,14.90
2019-04-26T17:45:53.856Z,14.90
2019-04-26T17:51:18.583Z,14.90
2019-04-26T18:02:00.816Z,14.80
2019-04-26T18:07:34.629Z,14.80
2019-04-26T18:12:32.607Z,14.80
2019-04-26T18:18:18.778Z,14.80
2019-04-26T18:23:34.558Z,14.70
2019-04-26T18:28:53.367Z,14.70
2019-04-26T18:34:07.882Z,14.70
2019-04-26T18:39:26.443Z,14.70
2019-04-26T18:44:47.347Z,14.70
2019-04-26T18:50:00.566Z,14.70
2019-04-26T18:55:29.170Z,14.60
2019-04-26T19:01:24.293Z,14.60
2019-04-26T19:06:42.176Z,14.60
2019-04-26T19:11:59.253Z,14.60
2019-04-26T19:17:25.966Z,14.50
2019-04-26T19:22:46.595Z,14.50
2019-04-26T19:28:04.281Z,14.50
2019-04-26T19:40:32.874Z,14.40
2019-04-26T19:46:28.648Z,14.40
2019-04-26T19:52:15.106Z,14.40
2019-04-26T19:58:16.146Z,14.30
2019-04-26T20:03:27.898Z,14.30
2019-04-26T20:09:26.575Z,14.30
2019-04-26T20:15:02.175Z,14.20
2019-04-26T20:21:12.587Z,14.20
2019-04-26T20:26:44.660Z,14.20
2019-04-26T20:32:28.756Z,14.10
2019-04-26T20:37:49.401Z,14.10
2019-04-26T20:43:24.510Z,14.10
2019-04-26T20:54:24.940Z,14.00
2019-04-26T21:01:02.506Z,14.00
2019-04-26T21:06:11.448Z,13.90
2019-04-26T21:11:51.689Z,13.90
2019-04-26T21:17:19.313Z,13.90
2019-04-26T21:23:19.755Z,13.80
2019-04-26T21:29:06.766Z,13.80
2019-04-26T21:34:38.744Z,13.80
2019-04-26T21:41:14.020Z,13.70
2019-04-26T21:47:03.245Z,13.70
2019-04-26T21:52:21.432Z,13.70
2019-04-26T21:58:02.685Z,13.60
2019-04-26T22:10:14.240Z,13.60
2019-04-26T22:16:29.342Z,13.60
2019-04-26T22:21:54.425Z,13.50
2019-04-26T22:27:25.353Z,13.50
2019-04-26T22:32:58.436Z,13.50
2019-04-26T22:38:28.978Z,13.40
2019-04-26T22:44:08.281Z,13.40
2019-04-26T22:49:45.123Z,13.40
2019-04-26T22:55:15.882Z,13.40
2019-04-26T23:00:58.478Z,13.30
2019-04-26T23:06:15.355Z,13.30
2019-04-26T23:12:05.552Z,13.30
2019-04-26T23:17:53.846Z,13.30
2019-04-26T23:23:26.859Z,13.20
2019-04-26T23:28:50.435Z,13.20
2019-04-26T23:34:26.670Z,13.20
2019-04-26T23:40:06.534Z,13.20
2019-04-26T23:45:35.481Z,13.10
2019-04-26T23:51:05.019Z,13.10
2019-04-26T23:56:37.379Z,13.10
